createdAt,value
2018-06-25T00:00:21.516Z,35.20
2018-06-25T00:02:25.941Z,35.70
2018-06-25T00:04:30.372Z,36.00
2018-06-25T00:06:34.691Z,36.70
2018-06-25T00:08:39.018Z,37.30
2018-06-25T00:10:43.392Z,38.20
2018-06-25T00:12:47.788Z,38.30
2018-06-25T00:14:52.117Z,38.90
2018-06-25T00:16:56.588Z,38.80
2018-06-25T00:19:01.048Z,39.50
2018-06-25T00:21:05.554Z,38.30
2018-06-25T00:23:09.953Z,38.40
2018-06-25T00:25:14.371Z,39.00
2018-06-25T00:27:18.721Z,40.50
2018-06-25T00:29:23.104Z,41.40
2018-06-25T00:31:27.566Z,42.20
2018-06-25T00:33:31.867Z,42.40
2018-06-25T00:35:36.237Z,41.20
2018-06-25T00:37:40.597Z,42.00
2018-06-25T00:39:44.919Z,42.20
2018-06-25T00:41:49.395Z,43.50
2018-06-25T00:43:53.845Z,43.10
2018-06-25T00:46:00.056Z,42.80
2018-06-25T00:48:04.527Z,43.30
2018-06-25T00:50:09.971Z,43.10
2018-06-25T00:52:14.392Z,43.00
2018-06-25T00:54:18.759Z,42.70
2018-06-25T00:56:23.179Z,43.20
2018-06-25T00:58:27.727Z,44.40
2018-06-25T01:00:32.123Z,43.70
2018-06-25T01:04:40.378Z,43.40
2018-06-25T01:06:44.814Z,43.90
2018-06-25T01:08:49.181Z,43.30
2018-06-25T01:10:53.675Z,43.80
2018-06-25T01:12:58.132Z,43.30
2018-06-25T01:15:02.521Z,43.40
2018-06-25T01:17:07.497Z,43.70
2018-06-25T01:19:11.868Z,44.10
2018-06-25T01:21:16.161Z,44.30
2018-06-25T01:23:20.548Z,43.40
2018-06-25T01:25:24.886Z,43.70
2018-06-25T01:27:29.427Z,43.40
2018-06-25T01:29:33.796Z,43.90
2018-06-25T01:31:38.218Z,44.00
2018-06-25T01:33:42.582Z,43.70
2018-06-25T01:35:47.067Z,43.90
2018-06-25T01:37:51.401Z,44.10
2018-06-25T01:39:55.709Z,44.10
2018-06-25T01:42:00.427Z,43.60
2018-06-25T01:44:04.880Z,43.70
2018-06-25T01:46:09.241Z,43.70
2018-06-25T01:48:13.668Z,44.00
2018-06-25T01:50:18.090Z,44.50
2018-06-25T01:52:22.465Z,44.50
2018-06-25T01:54:26.907Z,44.50
2018-06-25T01:56:31.313Z,44.50
2018-06-25T01:58:35.650Z,44.50
2018-06-25T02:00:40.076Z,44.60
2018-06-25T02:02:44.480Z,44.90
2018-06-25T02:04:48.878Z,44.70
2018-06-25T02:06:53.279Z,45.30
2018-06-25T02:08:57.740Z,45.20
2018-06-25T02:11:02.308Z,45.50
2018-06-25T02:13:06.756Z,46.30
2018-06-25T02:15:11.165Z,46.50
2018-06-25T02:17:15.514Z,47.40
2018-06-25T02:19:19.853Z,48.80
2018-06-25T02:21:24.230Z,48.50
2018-06-25T02:23:28.602Z,49.20
2018-06-25T02:25:32.921Z,50.30
2018-06-25T02:27:37.386Z,50.40
2018-06-25T02:29:41.717Z,51.10
2018-06-25T02:31:46.215Z,50.90
2018-06-25T02:33:50.662Z,51.30
2018-06-25T02:35:55.097Z,51.60
2018-06-25T02:37:59.479Z,51.90
2018-06-25T02:40:03.949Z,52.00
2018-06-25T02:42:08.374Z,51.80
2018-06-25T02:44:12.736Z,51.70
2018-06-25T02:46:17.095Z,51.30
2018-06-25T02:48:21.499Z,51.90
2018-06-25T02:50:25.829Z,52.00
2018-06-25T02:52:30.179Z,51.80
2018-06-25T02:54:34.539Z,52.20
2018-06-25T02:56:38.910Z,51.70
2018-06-25T02:58:43.266Z,51.50
2018-06-25T03:00:47.607Z,51.70
2018-06-25T03:02:51.934Z,52.40
2018-06-25T03:04:56.995Z,51.80
2018-06-25T03:07:01.345Z,52.60
2018-06-25T03:09:07.844Z,53.00
2018-06-25T03:11:12.221Z,53.80
2018-06-25T03:13:16.615Z,54.00
2018-06-25T03:15:20.950Z,54.40
2018-06-25T03:17:25.340Z,55.00
2018-06-25T03:19:29.689Z,55.30
2018-06-25T03:21:33.998Z,55.70
2018-06-25T03:23:38.338Z,55.80
2018-06-25T03:25:42.648Z,56.20
2018-06-25T03:27:47.080Z,56.20
2018-06-25T03:29:51.413Z,56.80
2018-06-25T03:31:55.742Z,57.40
2018-06-25T03:34:00.103Z,57.90
2018-06-25T03:36:04.541Z,58.50
2018-06-25T03:38:09.030Z,58.50
2018-06-25T03:40:13.278Z,59.10
2018-06-25T03:42:17.711Z,59.50
2018-06-25T03:44:22.047Z,60.10
2018-06-25T03:46:26.356Z,60.20
2018-06-25T03:48:30.725Z,60.90
2018-06-25T03:50:35.014Z,61.60
2018-06-25T03:52:39.323Z,61.90
2018-06-25T03:54:43.675Z,62.30
2018-06-25T03:56:48.014Z,62.50
2018-06-25T03:58:52.351Z,62.50
2018-06-25T04:00:56.839Z,62.10
2018-06-25T04:03:01.154Z,63.20
2018-06-25T04:05:05.618Z,65.10
2018-06-25T04:07:09.952Z,65.30
2018-06-25T04:09:14.288Z,66.00
2018-06-25T04:11:18.615Z,66.30
2018-06-25T04:13:22.934Z,66.80
2018-06-25T04:15:27.310Z,68.20
2018-06-25T04:17:31.682Z,69.20
2018-06-25T04:19:36.084Z,70.00
2018-06-25T04:21:40.524Z,70.40
2018-06-25T04:23:44.980Z,70.30
2018-06-25T04:25:49.334Z,70.90
2018-06-25T04:27:53.776Z,71.00
2018-06-25T04:29:58.509Z,71.20
2018-06-25T04:32:03.673Z,70.70
2018-06-25T04:34:08.075Z,71.10
2018-06-25T04:36:12.416Z,70.60
2018-06-25T04:38:16.712Z,70.90
2018-06-25T04:40:21.060Z,71.60
2018-06-25T04:42:25.403Z,72.10
2018-06-25T04:44:29.807Z,72.80
2018-06-25T04:46:34.402Z,73.30
2018-06-25T04:48:38.780Z,73.40
2018-06-25T04:50:43.123Z,73.40
2018-06-25T04:52:47.470Z,73.60
2018-06-25T04:54:51.897Z,73.50
2018-06-25T04:56:56.294Z,74.50
2018-06-25T04:59:00.664Z,80.30
2018-06-25T05:01:05.042Z,76.50
2018-06-25T05:03:09.296Z,73.80
2018-06-25T05:05:13.679Z,75.00
2018-06-25T05:07:18.021Z,75.30
2018-06-25T05:09:22.449Z,75.70
2018-06-25T05:11:27.400Z,76.80
2018-06-25T05:13:31.678Z,77.50
2018-06-25T05:15:36.134Z,79.40
2018-06-25T05:17:40.518Z,80.90
2018-06-25T05:19:45.015Z,82.00
2018-06-25T05:21:49.306Z,81.70
2018-06-25T05:23:53.684Z,81.20
2018-06-25T05:25:58.123Z,83.10
2018-06-25T05:28:02.511Z,82.70
2018-06-25T05:30:07.005Z,83.30
2018-06-25T05:32:11.423Z,82.10
2018-06-25T05:34:15.738Z,82.80
2018-06-25T05:36:20.077Z,83.20
2018-06-25T05:38:24.480Z,84.10
2018-06-25T05:40:28.895Z,83.60
2018-06-25T05:42:33.360Z,85.30
2018-06-25T05:44:37.734Z,83.40
2018-06-25T05:46:42.044Z,83.50
2018-06-25T05:48:46.501Z,84.00
2018-06-25T05:50:50.964Z,83.30
2018-06-25T05:52:55.355Z,83.00
2018-06-25T05:54:59.889Z,81.90
2018-06-25T05:57:04.424Z,81.60
2018-06-25T05:59:08.883Z,79.60
2018-06-25T06:01:13.289Z,79.50
2018-06-25T06:03:17.668Z,79.30
2018-06-25T06:05:22.113Z,79.40
2018-06-25T06:07:26.541Z,79.50
2018-06-25T06:09:30.965Z,79.00
2018-06-25T06:11:35.376Z,80.00
2018-06-25T06:13:39.823Z,78.60
2018-06-25T06:15:44.262Z,79.40
2018-06-25T06:17:48.695Z,79.50
2018-06-25T06:19:53.153Z,79.70
2018-06-25T06:21:57.547Z,80.00
2018-06-25T06:24:01.971Z,79.60
2018-06-25T06:26:06.400Z,79.80
2018-06-25T06:28:10.777Z,79.40
2018-06-25T06:30:15.238Z,79.50
2018-06-25T06:32:19.636Z,80.60
2018-06-25T06:34:24.108Z,80.00
2018-06-25T06:36:28.659Z,79.70
2018-06-25T06:38:33.048Z,80.60
2018-06-25T06:40:37.461Z,79.80
2018-06-25T06:42:41.890Z,80.10
2018-06-25T06:44:46.433Z,80.20
2018-06-25T06:46:51.307Z,79.70
2018-06-25T06:48:55.944Z,80.10
2018-06-25T06:51:00.603Z,79.60
2018-06-25T06:53:05.127Z,79.10
2018-06-25T06:55:09.629Z,78.90
2018-06-25T06:57:14.029Z,78.00
2018-06-25T06:59:18.465Z,78.40
2018-06-25T07:01:22.874Z,77.30
2018-06-25T07:03:27.526Z,77.20
2018-06-25T07:05:33.254Z,76.40
2018-06-25T07:07:37.913Z,76.70
2018-06-25T07:09:42.374Z,77.20
2018-06-25T07:11:46.778Z,77.20
2018-06-25T07:13:51.311Z,77.20
2018-06-25T07:15:55.778Z,77.40
2018-06-25T07:18:00.428Z,78.20
2018-06-25T07:20:05.135Z,77.00
2018-06-25T07:22:09.729Z,76.20
2018-06-25T07:24:14.288Z,75.70
2018-06-25T07:26:23.596Z,73.70
2018-06-25T07:28:28.934Z,70.20
2018-06-25T07:30:33.405Z,69.60
2018-06-25T07:32:38.092Z,71.80
2018-06-25T07:34:42.543Z,71.80
2018-06-25T07:36:47.002Z,72.50
2018-06-25T07:38:52.150Z,73.10
2018-06-25T07:40:56.501Z,72.50
2018-06-25T07:43:00.977Z,72.00
2018-06-25T07:45:05.879Z,71.60
2018-06-25T07:47:10.383Z,72.40
2018-06-25T07:49:14.776Z,73.20
2018-06-25T07:51:19.226Z,74.30
2018-06-25T07:53:23.676Z,73.00
2018-06-25T07:55:28.297Z,72.00
2018-06-25T07:57:32.793Z,71.50
2018-06-25T07:59:37.332Z,70.00
2018-06-25T08:01:41.871Z,69.90
2018-06-25T08:03:46.257Z,70.40
2018-06-25T08:05:50.690Z,69.70
2018-06-25T08:07:55.151Z,68.50
2018-06-25T08:09:59.634Z,68.50
2018-06-25T08:12:04.188Z,67.80
2018-06-25T08:14:08.591Z,67.30
2018-06-25T08:16:13.069Z,67.80
2018-06-25T08:18:17.598Z,68.80
2018-06-25T08:20:22.111Z,68.30
2018-06-25T08:22:26.454Z,69.70
2018-06-25T08:24:30.808Z,68.50
2018-06-25T08:26:35.368Z,67.60
2018-06-25T08:28:39.737Z,65.60
2018-06-25T08:30:44.147Z,64.90
2018-06-25T08:32:48.599Z,65.10
2018-06-25T08:34:53.064Z,63.40
2018-06-25T08:36:57.630Z,63.70
2018-06-25T08:39:02.025Z,61.60
2018-06-25T08:41:06.487Z,61.50
2018-06-25T08:43:11.025Z,60.70
2018-06-25T08:45:15.856Z,59.40
2018-06-25T08:47:20.261Z,59.00
2018-06-25T08:49:24.784Z,59.20
2018-06-25T08:51:29.290Z,58.00
2018-06-25T08:53:33.670Z,57.20
2018-06-25T08:55:38.057Z,59.60
2018-06-25T08:57:42.518Z,57.70
2018-06-25T08:59:46.929Z,56.80
2018-06-25T09:01:51.526Z,56.40
2018-06-25T09:03:56.317Z,56.30
2018-06-25T09:06:00.659Z,54.50
2018-06-25T09:08:05.124Z,53.60
2018-06-25T09:10:09.490Z,53.50
2018-06-25T09:12:13.899Z,53.80
2018-06-25T09:14:18.340Z,52.70
2018-06-25T09:16:22.841Z,52.70
2018-06-25T09:18:27.248Z,50.40
2018-06-25T09:20:32.611Z,50.20
2018-06-25T09:22:37.628Z,47.90
2018-06-25T09:24:43.418Z,48.90
2018-06-25T09:26:51.291Z,50.00
2018-06-25T09:28:57.044Z,50.00
2018-06-25T09:31:03.236Z,50.70
2018-06-25T09:33:07.642Z,44.20
2018-06-25T09:35:13.607Z,43.60
2018-06-25T09:37:20.280Z,40.60
2018-06-25T09:39:25.835Z,42.40
2018-06-25T09:41:30.496Z,42.20
2018-06-25T09:43:35.492Z,40.70
2018-06-25T09:45:40.648Z,37.60
2018-06-25T09:47:46.362Z,36.80
2018-06-25T09:49:51.872Z,36.80
2018-06-25T09:51:56.743Z,34.80
2018-06-25T09:54:01.537Z,33.10
2018-06-25T09:56:06.167Z,29.70
2018-06-25T09:58:11.868Z,34.30
2018-06-25T10:00:22.480Z,32.80
2018-06-25T10:02:28.020Z,30.70
2018-06-25T10:04:34.246Z,30.20
2018-06-25T10:06:39.096Z,27.00
2018-06-25T10:08:52.746Z,30.80
2018-06-25T10:10:57.385Z,28.70
2018-06-25T10:13:06.487Z,23.70
2018-06-25T10:15:14.336Z,17.60
2018-06-25T10:17:18.981Z,19.20
2018-06-25T10:19:23.505Z,21.70
2018-06-25T10:21:28.245Z,20.30
2018-06-25T10:23:35.064Z,19.50
2018-06-25T10:25:41.235Z,18.00
2018-06-25T10:27:45.782Z,20.60
2018-06-25T10:29:50.293Z,22.00
2018-06-25T10:31:54.679Z,23.50
2018-06-25T10:33:59.138Z,26.80
2018-06-25T10:36:03.678Z,26.40
2018-06-25T10:38:08.252Z,26.10
2018-06-25T10:40:12.666Z,27.20
2018-06-25T10:42:17.251Z,25.00
2018-06-25T10:44:21.789Z,24.70
2018-06-25T10:46:27.363Z,27.10
2018-06-25T10:48:31.875Z,26.80
2018-06-25T10:50:36.341Z,26.70
2018-06-25T10:52:40.891Z,26.50
2018-06-25T10:54:45.711Z,26.80
2018-06-25T10:56:50.286Z,27.10
2018-06-25T10:58:54.992Z,26.50
2018-06-25T11:00:59.524Z,24.60
2018-06-25T11:03:04.030Z,24.60
2018-06-25T11:05:08.629Z,25.70
2018-06-25T11:07:13.119Z,27.30
2018-06-25T11:09:17.517Z,27.20
2018-06-25T11:11:22.316Z,26.80
2018-06-25T11:13:27.025Z,25.30
2018-06-25T11:15:31.725Z,22.30
2018-06-25T11:17:36.680Z,23.60
2018-06-25T11:19:41.079Z,21.60
2018-06-25T11:21:45.498Z,21.00
2018-06-25T11:23:49.984Z,16.50
2018-06-25T11:25:54.709Z,18.50
2018-06-25T11:27:59.076Z,19.80
2018-06-25T11:30:03.517Z,16.10
2018-06-25T11:32:08.119Z,16.60
2018-06-25T11:34:12.816Z,17.00
2018-06-25T11:36:17.916Z,12.90
2018-06-25T11:40:26.282Z,8.90
2018-06-25T11:42:30.743Z,7.70
2018-06-25T11:44:35.289Z,7.80
2018-06-25T11:46:39.784Z,3.80
2018-06-25T11:48:44.208Z,5.20
2018-06-25T11:50:48.843Z,9.30
2018-06-25T11:52:53.166Z,8.30
2018-06-25T11:54:57.648Z,9.70
2018-06-25T11:57:01.967Z,9.60
2018-06-25T11:59:06.551Z,8.70
2018-06-25T12:01:11.016Z,10.70
2018-06-25T12:03:15.560Z,10.70
2018-06-25T12:05:19.882Z,11.00
2018-06-25T12:07:24.319Z,12.00
2018-06-25T12:09:28.701Z,14.90
2018-06-25T12:11:33.116Z,13.60
2018-06-25T12:13:37.547Z,15.60
2018-06-25T12:15:41.989Z,13.10
2018-06-25T12:17:46.545Z,9.90
2018-06-25T12:19:51.011Z,10.90
2018-06-25T12:21:55.367Z,10.00
2018-06-25T12:26:04.900Z,10.10
2018-06-25T12:28:09.457Z,8.70
2018-06-25T12:30:13.987Z,6.10
2018-06-25T12:32:18.491Z,7.20
2018-06-25T12:34:23.020Z,6.40
2018-06-25T12:36:27.425Z,7.00
2018-06-25T12:38:33.308Z,6.30
2018-06-25T12:40:37.817Z,7.70
2018-06-25T12:42:42.204Z,11.80
2018-06-25T12:44:46.816Z,16.40
2018-06-25T12:46:51.415Z,13.30
2018-06-25T12:48:56.562Z,8.90
2018-06-25T12:51:01.061Z,6.40
2018-06-25T12:53:05.514Z,7.00
2018-06-25T12:55:09.910Z,7.80
2018-06-25T12:57:14.506Z,8.40
2018-06-25T12:59:18.835Z,10.00
2018-06-25T13:01:23.251Z,10.50
2018-06-25T13:05:31.604Z,8.80
2018-06-25T13:07:36.014Z,9.70
2018-06-25T13:09:40.469Z,10.30
2018-06-25T13:11:45.136Z,9.20
2018-06-25T13:13:49.444Z,7.00
2018-06-25T13:15:53.876Z,7.10
2018-06-25T13:17:58.371Z,6.60
2018-06-25T13:20:02.757Z,6.60
2018-06-25T13:22:07.244Z,8.60
2018-06-25T13:26:15.859Z,11.60
2018-06-25T13:28:20.277Z,10.10
2018-06-25T13:30:25.734Z,11.00
2018-06-25T13:32:30.439Z,8.40
2018-06-25T13:34:35.237Z,5.10
2018-06-25T13:36:39.724Z,5.90
2018-06-25T13:38:44.102Z,5.40
2018-06-25T13:40:48.835Z,4.60
2018-06-25T13:42:53.281Z,3.40
2018-06-25T13:44:58.183Z,4.80
2018-06-25T13:47:02.575Z,5.30
2018-06-25T13:49:07.327Z,9.90
2018-06-25T13:51:11.758Z,7.30
2018-06-25T13:53:16.563Z,6.50
2018-06-25T13:55:21.035Z,5.30
2018-06-25T13:57:25.489Z,5.60
2018-06-25T13:59:30.026Z,6.00
2018-06-25T14:01:34.521Z,7.50
2018-06-25T14:03:38.922Z,9.20
2018-06-25T14:05:43.360Z,8.20
2018-06-25T14:07:52.623Z,10.40
2018-06-25T14:09:57.329Z,10.20
2018-06-25T14:12:02.024Z,11.20
2018-06-25T14:14:07.289Z,8.40
2018-06-25T14:16:12.104Z,8.90
2018-06-25T14:18:16.758Z,5.90
2018-06-25T14:20:21.953Z,5.70
2018-06-25T14:22:26.804Z,5.50
2018-06-25T14:24:36.641Z,5.60
2018-06-25T14:26:44.424Z,5.50
2018-06-25T14:28:49.070Z,5.90
2018-06-25T14:30:58.966Z,7.50
2018-06-25T14:33:04.089Z,6.80
2018-06-25T14:35:14.957Z,7.60
2018-06-25T14:37:19.706Z,7.90
2018-06-25T14:39:24.430Z,8.40
2018-06-25T14:41:29.212Z,8.70
2018-06-25T14:43:35.503Z,9.90
2018-06-25T14:45:40.054Z,9.10
2018-06-25T14:47:44.724Z,8.00
2018-06-25T14:49:49.272Z,7.10
2018-06-25T14:51:54.053Z,8.40
2018-06-25T14:53:58.610Z,7.70
2018-06-25T14:56:03.304Z,6.30
2018-06-25T14:58:08.191Z,6.70
2018-06-25T15:02:21.019Z,7.80
2018-06-25T15:04:25.722Z,7.70
2018-06-25T15:06:30.496Z,6.80
2018-06-25T15:08:35.085Z,6.20
2018-06-25T15:10:39.975Z,7.50
2018-06-25T15:12:44.491Z,6.60
2018-06-25T15:14:48.943Z,6.30
2018-06-25T15:16:53.491Z,5.50
2018-06-25T15:18:57.957Z,5.80
2018-06-25T15:21:02.432Z,3.40
2018-06-25T15:23:07.010Z,6.60
2018-06-25T15:25:11.619Z,2.40
2018-06-25T15:27:16.287Z,5.30
2018-06-25T15:29:20.740Z,1.00
2018-06-25T15:31:25.563Z,1.00
2018-06-25T15:33:30.017Z,1.10
2018-06-25T15:35:34.444Z,1.00
2018-06-25T15:37:38.888Z,1.00
2018-06-25T15:39:43.303Z,1.00
2018-06-25T15:41:47.697Z,1.00
2018-06-25T15:43:52.104Z,1.00
2018-06-25T15:45:56.498Z,1.00
2018-06-25T15:48:01.094Z,1.30
2018-06-25T15:50:05.725Z,5.50
2018-06-25T15:52:10.453Z,2.50
2018-06-25T15:54:14.859Z,2.90
2018-06-25T15:56:19.297Z,2.40
2018-06-25T15:58:23.907Z,3.10
2018-06-25T16:00:28.402Z,1.00
2018-06-25T16:02:33.121Z,2.50
2018-06-25T16:04:37.532Z,1.10
2018-06-25T16:06:42.062Z,1.20
2018-06-25T16:08:46.449Z,2.10
2018-06-25T16:10:50.789Z,5.20
2018-06-25T16:12:55.383Z,6.50
2018-06-25T16:14:59.815Z,1.90
2018-06-25T16:17:05.089Z,1.40
2018-06-25T16:19:09.473Z,2.30
2018-06-25T16:21:14.674Z,2.30
2018-06-25T16:23:19.063Z,1.70
2018-06-25T16:25:23.452Z,2.30
2018-06-25T16:27:27.930Z,2.10
2018-06-25T16:29:32.259Z,1.10
2018-06-25T16:31:36.759Z,1.40
2018-06-25T16:33:41.631Z,2.50
2018-06-25T16:35:46.128Z,2.60
2018-06-25T16:37:50.544Z,1.50
2018-06-25T16:39:54.947Z,2.00
2018-06-25T16:41:59.414Z,2.30
2018-06-25T16:44:04.763Z,2.50
2018-06-25T16:46:09.104Z,2.80
2018-06-25T16:48:13.625Z,1.20
2018-06-25T16:50:18.023Z,1.40
2018-06-25T16:52:22.348Z,1.70
2018-06-25T16:54:26.868Z,2.10
2018-06-25T16:56:31.168Z,2.70
2018-06-25T16:58:35.800Z,2.30
2018-06-25T17:00:40.145Z,6.20
2018-06-25T17:02:44.595Z,2.30
2018-06-25T17:04:48.968Z,2.40
2018-06-25T17:06:53.585Z,3.50
2018-06-25T17:08:58.295Z,8.40
2018-06-25T17:11:02.758Z,5.20
2018-06-25T17:13:07.165Z,4.50
2018-06-25T17:15:11.551Z,3.90
2018-06-25T17:17:15.913Z,4.80
2018-06-25T17:19:20.230Z,3.60
2018-06-25T17:21:24.635Z,3.40
2018-06-25T17:23:28.987Z,4.10
2018-06-25T17:25:33.367Z,4.40
2018-06-25T17:27:37.762Z,4.50
2018-06-25T17:29:42.156Z,4.50
2018-06-25T17:31:46.646Z,4.40
2018-06-25T17:33:51.194Z,5.50
2018-06-25T17:35:55.774Z,5.30
2018-06-25T17:38:00.211Z,5.00
2018-06-25T17:40:05.070Z,5.40
2018-06-25T17:42:09.640Z,5.80
2018-06-25T17:44:14.192Z,7.40
2018-06-25T17:46:18.555Z,7.90
2018-06-25T17:48:22.983Z,7.70
2018-06-25T17:50:27.427Z,7.90
2018-06-25T17:52:32.219Z,7.40
2018-06-25T17:54:37.149Z,7.30
2018-06-25T17:56:42.424Z,7.50
2018-06-25T17:58:47.127Z,8.20
2018-06-25T18:00:51.975Z,8.30
2018-06-25T18:02:56.488Z,10.20
2018-06-25T18:05:00.912Z,10.70
2018-06-25T18:07:05.465Z,11.20
2018-06-25T18:09:11.523Z,12.10
2018-06-25T18:11:16.076Z,11.70
2018-06-25T18:13:20.863Z,12.40
2018-06-25T18:15:25.513Z,14.50
2018-06-25T18:17:30.330Z,15.40
2018-06-25T18:19:34.857Z,15.80
2018-06-25T18:21:39.243Z,15.90
2018-06-25T18:23:43.683Z,16.40
2018-06-25T18:25:48.074Z,16.60
2018-06-25T18:27:52.823Z,16.50
2018-06-25T18:32:01.414Z,17.50
2018-06-25T18:34:05.817Z,17.50
2018-06-25T18:36:10.370Z,18.10
2018-06-25T18:38:15.159Z,19.10
2018-06-25T18:40:19.510Z,18.90
2018-06-25T18:42:24.496Z,19.20
2018-06-25T18:44:29.265Z,19.00
2018-06-25T18:46:33.905Z,19.40
2018-06-25T18:48:38.823Z,19.10
2018-06-25T18:50:43.503Z,19.30
2018-06-25T18:52:48.766Z,19.90
2018-06-25T18:54:56.451Z,20.60
2018-06-25T18:59:06.124Z,22.30
2018-06-25T19:01:10.761Z,22.60
2018-06-25T19:03:15.462Z,22.70
2018-06-25T19:05:20.110Z,23.80
2018-06-25T19:07:24.648Z,23.90
2018-06-25T19:09:29.090Z,24.10
2018-06-25T19:11:34.296Z,21.20
2018-06-25T19:13:39.247Z,24.50
2018-06-25T19:15:45.169Z,24.70
2018-06-25T19:17:50.076Z,25.20
2018-06-25T19:19:55.505Z,25.70
2018-06-25T19:22:00.813Z,26.20
2018-06-25T19:24:05.644Z,26.90
2018-06-25T19:26:10.964Z,26.90
2018-06-25T19:28:15.687Z,28.90
2018-06-25T19:30:20.608Z,29.10
2018-06-25T19:32:25.293Z,29.80
2018-06-25T19:34:30.467Z,30.00
2018-06-25T19:36:34.847Z,29.80
2018-06-25T19:38:39.367Z,30.00
2018-06-25T19:40:43.869Z,30.30
2018-06-25T19:42:48.683Z,31.00
2018-06-25T19:44:53.803Z,30.50
2018-06-25T19:46:58.524Z,30.80
2018-06-25T19:49:03.123Z,30.80
2018-06-25T19:51:08.243Z,30.90
2018-06-25T19:53:12.780Z,31.00
2018-06-25T19:55:17.250Z,31.10
2018-06-25T19:57:21.962Z,31.50
2018-06-25T19:59:26.478Z,32.00
2018-06-25T20:01:31.424Z,35.50
2018-06-25T20:03:35.942Z,30.70
2018-06-25T20:05:40.352Z,31.30
2018-06-25T20:07:44.732Z,31.60
2018-06-25T20:09:49.093Z,32.30
2018-06-25T20:11:53.580Z,32.50
2018-06-25T20:13:58.108Z,32.60
2018-06-25T20:16:02.653Z,33.20
2018-06-25T20:18:07.169Z,33.60
2018-06-25T20:20:11.597Z,33.30
2018-06-25T20:22:16.042Z,33.20
2018-06-25T20:26:26.117Z,34.50
2018-06-25T20:28:30.678Z,34.60
2018-06-25T20:30:35.125Z,35.00
2018-06-25T20:32:39.593Z,35.20
2018-06-25T20:34:44.196Z,34.10
2018-06-25T20:36:49.070Z,35.00
2018-06-25T20:38:54.937Z,35.10
2018-06-25T20:40:59.328Z,35.80
2018-06-25T20:43:03.857Z,35.70
2018-06-25T20:45:08.358Z,35.20
2018-06-25T20:47:12.768Z,35.60
2018-06-25T20:49:17.279Z,36.20
2018-06-25T20:51:22.234Z,36.80
2018-06-25T20:53:26.628Z,37.20
2018-06-25T20:55:31.154Z,37.90
2018-06-25T20:57:35.623Z,44.00
2018-06-25T20:59:40.065Z,38.60
2018-06-25T21:03:48.538Z,46.50
2018-06-25T21:05:53.272Z,41.60
2018-06-25T21:07:57.657Z,41.90
2018-06-25T21:10:02.124Z,42.10
2018-06-25T21:12:06.575Z,42.20
2018-06-25T21:14:11.115Z,42.80
2018-06-25T21:16:15.653Z,43.20
2018-06-25T21:18:20.192Z,43.30
2018-06-25T21:20:24.803Z,43.40
2018-06-25T21:22:29.525Z,43.70
2018-06-25T21:24:34.171Z,44.50
2018-06-25T21:26:38.963Z,44.80
2018-06-25T21:28:43.844Z,51.10
2018-06-25T21:30:48.574Z,46.20
2018-06-25T21:32:54.312Z,46.30
2018-06-25T21:34:59.042Z,47.00
2018-06-25T21:37:03.658Z,47.10
2018-06-25T21:39:09.228Z,50.50
2018-06-25T21:41:13.876Z,51.50
2018-06-25T21:43:18.497Z,51.80
2018-06-25T21:45:22.841Z,52.80
2018-06-25T21:47:27.243Z,52.70
2018-06-25T21:49:31.658Z,52.80
2018-06-25T21:51:36.114Z,52.70
2018-06-25T21:53:40.560Z,54.50
2018-06-25T21:55:44.899Z,53.20
2018-06-25T21:57:49.276Z,53.40
2018-06-25T21:59:53.617Z,53.20
2018-06-25T22:01:58.165Z,53.60
2018-06-25T22:04:02.676Z,53.80
2018-06-25T22:06:06.988Z,53.70
2018-06-25T22:08:11.574Z,58.90
2018-06-25T22:10:15.880Z,53.10
2018-06-25T22:12:20.394Z,54.00
2018-06-25T22:14:24.848Z,53.50
2018-06-25T22:16:29.459Z,53.40
2018-06-25T22:18:33.950Z,54.10
2018-06-25T22:20:38.421Z,53.00
2018-06-25T22:22:42.855Z,53.70
2018-06-25T22:24:47.311Z,53.60
2018-06-25T22:26:51.683Z,54.10
2018-06-25T22:28:56.073Z,53.70
2018-06-25T22:31:00.484Z,55.60
2018-06-25T22:33:04.953Z,54.40
2018-06-25T22:35:09.355Z,55.10
2018-06-25T22:37:13.719Z,55.00
2018-06-25T22:39:18.198Z,55.30
2018-06-25T22:41:23.090Z,55.90
2018-06-25T22:43:27.476Z,56.10
2018-06-25T22:45:31.814Z,56.70
2018-06-25T22:47:36.140Z,56.80
2018-06-25T22:49:40.464Z,56.60
2018-06-25T22:51:45.000Z,57.50
2018-06-25T22:53:49.603Z,62.30
2018-06-25T22:55:54.246Z,57.50
2018-06-25T22:57:58.660Z,57.30
2018-06-25T23:00:03.276Z,57.20
2018-06-25T23:02:07.851Z,57.20
2018-06-25T23:04:12.254Z,57.50
2018-06-25T23:06:16.989Z,58.20
2018-06-25T23:08:21.692Z,57.90
2018-06-25T23:10:27.303Z,57.80
2018-06-25T23:12:31.873Z,58.20
2018-06-25T23:14:36.418Z,57.30
2018-06-25T23:16:41.035Z,58.40
2018-06-25T23:18:45.736Z,59.40
2018-06-25T23:20:50.363Z,59.90
2018-06-25T23:22:56.844Z,61.10
2018-06-25T23:25:01.576Z,61.50
2018-06-25T23:27:06.310Z,60.30
2018-06-25T23:29:10.860Z,60.20
2018-06-25T23:31:15.503Z,59.80
2018-06-25T23:33:20.037Z,60.00
2018-06-25T23:35:24.657Z,59.80
2018-06-25T23:37:29.294Z,60.00
2018-06-25T23:39:33.914Z,59.80
2018-06-25T23:43:42.586Z,60.40
2018-06-25T23:45:47.163Z,60.70
2018-06-25T23:47:51.991Z,60.60
2018-06-25T23:49:56.645Z,61.20
2018-06-25T23:52:01.322Z,61.50
2018-06-25T23:54:06.081Z,61.30
2018-06-25T23:58:14.847Z,61.30
